Time;durP1;ratioP1;P1;durP2;ratioP2;P2;SDS_P1;SDS_P2;PMS_P1;PMS_P2;Temp;Humidity;BMP_temperature;BMP_pressure;BME280_temperature;BME280_humidity;BME280_pressure;Samples;Min_cycle;Max_cycle;Signal;HPM_P1;HPM_P2
2022/06/27 00:01:22;;;;;;;9.35;6.53;;;;;;;17.06;100.00;101383.88;5032485;28;20048;-67
2022/06/27 00:03:48;;;;;;;8.23;6.13;;;;;;;17.29;100.00;101415.50;5032755;28;20037;-68
2022/06/27 00:06:13;;;;;;;9.38;6.60;;;;;;;17.13;100.00;101401.25;5032442;28;20032;-68
2022/06/27 00:08:39;;;;;;;10.07;6.50;;;;;;;16.90;100.00;101356.31;5032658;28;20404;-69
2022/06/27 00:11:05;;;;;;;8.68;6.55;;;;;;;16.93;100.00;101374.78;5032474;28;20029;-69
2022/06/27 00:13:30;;;;;;;11.10;6.65;;;;;;;16.97;100.00;101368.38;5032426;28;20033;-67
2022/06/27 00:15:55;;;;;;;11.52;7.90;;;;;;;16.96;100.00;101371.97;5032864;28;20033;-67
2022/06/27 00:18:21;;;;;;;8.43;6.50;;;;;;;16.97;100.00;101370.19;5014936;28;20028;-68
2022/06/27 00:20:46;;;;;;;11.55;6.05;;;;;;;17.22;100.00;101427.38;5014768;28;20400;-67
2022/06/27 00:23:12;;;;;;;9.75;7.28;;;;;;;16.91;100.00;101371.34;5032221;28;20049;-68
2022/06/27 00:25:37;;;;;;;7.57;6.40;;;;;;;17.23;100.00;101426.47;5031784;28;20042;-67
2022/06/27 00:28:03;;;;;;;9.82;6.00;;;;;;;17.23;100.00;101428.25;5030865;28;20473;-69
2022/06/27 00:30:28;;;;;;;8.50;6.88;;;;;;;16.90;100.00;101376.75;5032188;28;20408;-68
2022/06/27 00:32:54;;;;;;;7.45;6.25;;;;;;;16.87;100.00;101373.31;5032504;28;20030;-67
2022/06/27 00:35:19;;;;;;;10.73;6.72;;;;;;;16.93;100.00;101387.25;5032084;28;20080;-67
2022/06/27 00:37:45;;;;;;;7.50;6.00;;;;;;;16.87;100.00;101378.63;5032014;28;20072;-68
2022/06/27 00:40:10;;;;;;;7.35;5.88;;;;;;;16.92;100.00;101394.34;5032019;28;20124;-67
2022/06/27 00:42:36;;;;;;;6.30;5.68;;;;;;;17.17;100.00;101450.69;5031930;28;20042;-68
2022/06/27 00:45:01;;;;;;;7.55;6.30;;;;;;;17.14;100.00;101445.53;5031975;28;20041;-68
2022/06/27 00:47:27;;;;;;;6.22;5.70;;;;;;;17.10;100.00;101443.97;5032373;28;20034;-69
2022/06/27 00:49:53;;;;;;;9.30;6.65;;;;;;;16.92;100.00;101423.63;5032158;28;20452;-66
2022/06/27 00:52:18;;;;;;;7.20;5.68;;;;;;;16.84;100.00;101401.88;5030785;28;20064;-66
2022/06/27 00:54:46;;;;;;;8.80;6.63;;;;;;;16.33;100.00;101314.88;5032170;28;20038;-68
2022/06/27 00:57:12;;;;;;;12.57;6.28;;;;;;;17.12;100.00;101457.19;5030743;28;20464;-67
2022/06/27 00:59:38;;;;;;;9.35;6.20;;;;;;;16.90;100.00;101417.47;5031887;28;20037;-67
2022/06/27 01:02:04;;;;;;;9.98;6.65;;;;;;;17.12;100.00;101455.41;5032051;28;20176;-67
2022/06/27 01:04:30;;;;;;;10.52;6.53;;;;;;;17.10;100.00;101453.75;5030555;28;20033;-68
2022/06/27 01:06:56;;;;;;;9.82;6.93;;;;;;;16.81;100.00;101399.34;5032030;28;20037;-68
2022/06/27 01:09:22;;;;;;;9.75;7.00;;;;;;;17.03;100.00;101441.69;5030700;28;20053;-66
2022/06/27 01:11:49;;;;;;;14.35;7.60;;;;;;;17.07;100.00;101441.47;5030866;28;20468;-67
2022/06/27 01:14:14;;;;;;;10.20;7.28;;;;;;;15.97;100.00;101252.88;5030615;28;20033;-69
2022/06/27 01:16:40;;;;;;;10.82;8.00;;;;;;;16.93;100.00;101422.66;5031821;28;20116;-68
2022/06/27 01:19:09;;;;;;;9.77;7.38;;;;;;;16.96;100.00;101429.66;5014231;28;20113;-67
2022/06/27 01:22:04;;;;;;;12.88;7.95;;;;;;;17.03;100.00;101437.22;5031831;28;20404;-69
2022/06/27 01:24:29;;;;;;;9.52;7.25;;;;;;;16.67;100.00;101377.88;5029410;28;20061;-68
2022/06/27 01:26:55;;;;;;;8.45;6.55;;;;;;;17.07;100.00;101432.63;5031480;28;20476;-66
2022/06/27 01:29:21;;;;;;;12.77;6.85;;;;;;;17.04;100.00;101431.00;5031857;28;20084;-68
2022/06/27 01:31:46;;;;;;;7.38;6.78;;;;;;;17.00;100.00;101431.19;5030577;28;20029;-69
2022/06/27 01:34:14;;;;;;;8.68;6.60;;;;;;;17.04;100.00;101444.28;5014040;28;20111;-67
2022/06/27 01:36:42;;;;;;;9.23;6.43;;;;;;;17.07;100.00;101445.94;5031857;28;20091;-67
2022/06/27 01:39:22;;;;;;;8.15;7.13;;;;;;;16.93;100.00;101421.81;5034005;28;20044;-67
2022/06/27 01:41:50;;;;;;;9.45;7.05;;;;;;;16.73;100.00;101388.22;5034161;28;20057;-67
2022/06/27 01:44:17;;;;;;;8.35;6.60;;;;;;;16.73;100.00;101373.13;5033884;28;20345;-68
2022/06/27 01:47:08;;;;;;;7.40;6.05;;;;;;;17.07;100.00;101449.47;5035251;28;20381;-68
2022/06/27 01:49:35;;;;;;;8.52;6.68;;;;;;;16.67;100.00;101359.28;5035052;28;20034;-66
2022/06/27 01:52:02;;;;;;;10.77;6.82;;;;;;;16.95;100.00;101407.50;5033733;28;20048;-67
2022/06/27 01:54:27;;;;;;;8.82;6.88;;;;;;;17.06;100.00;101426.44;5035021;28;20045;-67
2022/06/27 01:56:53;;;;;;;9.45;7.28;;;;;;;17.00;100.00;101417.91;5035251;28;20033;-68
2022/06/27 01:59:23;;;;;;;9.57;6.63;;;;;;;17.05;100.00;101432.69;5035042;28;20038;-67
2022/06/27 02:01:49;;;;;;;6.90;6.20;;;;;;;16.88;100.00;101398.97;5035019;28;20496;-66
2022/06/27 02:04:15;;;;;;;8.02;7.07;;;;;;;16.70;100.00;101370.63;5034693;28;20042;-68
2022/06/27 02:06:41;;;;;;;9.50;6.97;;;;;;;16.71;100.00;101366.16;5034812;28;20037;-68
2022/06/27 02:09:08;;;;;;;9.85;6.97;;;;;;;16.64;100.00;101359.41;5034847;28;20037;-67
2022/06/27 02:11:33;;;;;;;10.10;7.25;;;;;;;16.80;100.00;101365.72;5034862;28;20488;-67
2022/06/27 02:13:59;;;;;;;7.60;6.85;;;;;;;16.69;100.00;101345.00;5034764;28;20037;-67
2022/06/27 02:16:25;;;;;;;7.85;7.05;;;;;;;16.62;100.00;101329.41;5033434;28;20103;-69
2022/06/27 02:18:51;;;;;;;8.93;7.47;;;;;;;16.83;100.00;101377.06;5033299;28;20033;-68
2022/06/27 02:21:22;;;;;;;9.13;7.10;;;;;;;16.63;100.00;101344.44;5033320;28;20463;-68
2022/06/27 02:23:48;;;;;;;10.65;7.45;;;;;;;16.53;100.00;101328.03;5033174;28;20080;-68
2022/06/27 02:26:15;;;;;;;10.50;7.35;;;;;;;16.83;100.00;101393.03;5034413;28;20488;-68
2022/06/27 02:28:41;;;;;;;10.55;7.32;;;;;;;16.72;100.00;101376.72;5034617;28;20040;-67
2022/06/27 02:31:07;;;;;;;10.32;7.63;;;;;;;16.81;100.00;101399.34;5033194;28;20504;-68
2022/06/27 02:33:34;;;;;;;8.50;7.65;;;;;;;16.81;100.00;101416.13;5033008;28;20071;-67
2022/06/27 02:36:02;;;;;;;8.27;7.18;;;;;;;16.65;100.00;101380.63;5034418;28;20041;-68
2022/06/27 02:38:27;;;;;;;9.82;8.57;;;;;;;16.80;100.00;101400.28;5034390;28;20041;-68
2022/06/27 02:40:53;;;;;;;10.35;7.38;;;;;;;16.51;100.00;101353.84;5032991;28;20594;-67
2022/06/27 02:43:19;;;;;;;9.95;7.43;;;;;;;16.53;100.00;101354.59;5034015;28;20036;-67
2022/06/27 02:45:46;;;;;;;8.43;6.88;;;;;;;16.67;100.00;101393.81;5033956;28;20044;-67
2022/06/27 02:48:12;;;;;;;8.63;7.50;;;;;;;16.49;100.00;101363.66;5033077;28;20029;-66
2022/06/27 02:50:38;;;;;;;10.27;8.85;;;;;;;16.27;100.00;101339.94;5015654;28;20121;-68
2022/06/27 02:53:10;;;;;;;8.82;7.93;;;;;;;16.19;100.00;101330.59;5032870;28;20512;-67
2022/06/27 02:55:39;;;;;;;9.98;8.05;;;;;;;16.45;100.00;101386.00;5032838;28;20029;-67
2022/06/27 02:58:43;;;;;;;10.00;8.23;;;;;;;16.43;100.00;101385.22;5032670;28;20025;-66
2022/06/27 03:01:10;;;;;;;12.32;8.80;;;;;;;16.34;100.00;101383.84;5011891;28;20574;-68
2022/06/27 03:03:36;;;;;;;13.02;9.52;;;;;;;16.28;100.00;101378.00;5032386;28;20381;-68
2022/06/27 03:06:08;;;;;;;9.25;8.23;;;;;;;16.16;100.00;101371.47;5033741;28;20476;-67
2022/06/27 03:08:39;;;;;;;11.63;8.77;;;;;;;16.17;100.00;101370.50;5032553;28;20061;-67
2022/06/27 03:11:05;;;;;;;11.52;8.85;;;;;;;16.14;100.00;101375.97;5033551;28;20040;-68
2022/06/27 03:13:31;;;;;;;11.88;9.18;;;;;;;16.10;100.00;101368.22;5032584;28;20112;-68
2022/06/27 03:15:56;;;;;;;11.98;8.95;;;;;;;15.80;100.00;101316.53;5032460;28;20116;-70
2022/06/27 03:18:22;;;;;;;9.63;8.73;;;;;;;15.99;100.00;101355.47;5032121;28;20073;-68
2022/06/27 03:20:47;;;;;;;10.90;8.82;;;;;;;15.96;100.00;101363.56;5033354;28;20026;-67
2022/06/27 03:23:12;;;;;;;9.63;8.55;;;;;;;15.91;100.00;101362.03;5033358;28;20059;-68
2022/06/27 03:25:38;;;;;;;12.07;9.73;;;;;;;15.80;100.00;101351.91;5033292;28;20037;-67
2022/06/27 03:28:04;;;;;;;11.93;10.05;;;;;;;15.42;100.00;101292.59;5033161;28;20029;-68
2022/06/27 03:30:29;;;;;;;13.10;9.07;;;;;;;15.21;100.00;101270.53;5033366;28;20042;-67
2022/06/27 03:32:55;;;;;;;13.88;10.48;;;;;;;15.67;100.00;101366.69;5032221;28;20034;-69
2022/06/27 03:35:20;;;;;;;10.43;9.40;;;;;;;15.31;100.00;101318.72;5032039;28;20176;-67
2022/06/27 03:37:45;;;;;;;12.05;9.70;;;;;;;15.21;100.00;101299.69;5033313;28;20030;-67
2022/06/27 03:40:11;;;;;;;15.13;9.90;;;;;;;15.52;100.00;101370.88;5033110;28;20033;-67
2022/06/27 03:42:36;;;;;;;10.75;9.65;;;;;;;15.50;100.00;101369.22;5032043;28;20041;-67
2022/06/27 03:45:02;;;;;;;12.30;10.63;;;;;;;15.16;100.00;101314.09;5033085;28;20045;-65
2022/06/27 03:47:28;;;;;;;11.52;9.63;;;;;;;15.39;100.00;101343.13;5033018;28;20040;-67
2022/06/27 03:50:02;;;;;;;17.17;10.77;;;;;;;15.48;100.00;101363.09;5036510;28;20040;-68
2022/06/27 03:52:28;;;;;;;12.00;10.25;;;;;;;15.15;100.00;101296.44;5032841;28;20078;-67
2022/06/27 03:54:54;;;;;;;14.43;10.40;;;;;;;15.44;100.00;101335.81;5043987;28;20068;-66
2022/06/27 03:57:19;;;;;;;12.68;10.98;;;;;;;15.39;100.00;101339.59;5052854;28;20116;-66
2022/06/27 03:59:44;;;;;;;13.07;11.27;;;;;;;15.39;100.00;101342.25;5052707;28;20037;-67
2022/06/27 04:02:10;;;;;;;13.50;11.70;;;;;;;15.43;100.00;101350.03;5051646;28;20511;-66
2022/06/27 04:04:35;;;;;;;14.48;11.48;;;;;;;15.42;100.00;101347.44;5052413;28;20041;-67
2022/06/27 04:07:04;;;;;;;13.35;11.27;;;;;;;15.22;100.00;101305.88;5051168;28;20052;-66
2022/06/27 04:09:30;;;;;;;12.13;10.82;;;;;;;15.44;100.00;101356.19;5050647;28;20476;-67
2022/06/27 04:11:55;;;;;;;17.13;11.10;;;;;;;15.42;100.00;101343.00;5051027;28;20079;-66
2022/06/27 04:14:20;;;;;;;12.25;10.43;;;;;;;15.49;100.00;101351.56;5052282;28;20037;-66
2022/06/27 04:16:46;;;;;;;13.13;11.40;;;;;;;15.53;100.00;101339.88;5051137;28;20044;-66
2022/06/27 04:19:11;;;;;;;13.55;10.82;;;;;;;15.47;100.00;101314.47;5052159;28;20378;-66
2022/06/27 04:21:37;;;;;;;13.32;10.18;;;;;;;15.49;100.00;101311.78;5051015;28;20037;-66
2022/06/27 04:24:03;;;;;;;13.38;10.10;;;;;;;15.31;100.00;101278.06;5051176;28;20140;-65
2022/06/27 04:26:28;;;;;;;11.57;10.38;;;;;;;15.65;100.00;101345.50;5050473;28;20033;-66
2022/06/27 04:28:54;;;;;;;12.43;10.18;;;;;;;15.35;100.00;101298.25;5050103;28;20045;-66
2022/06/27 04:31:19;;;;;;;10.98;9.88;;;;;;;15.72;100.00;101343.44;5052262;28;20067;-67
2022/06/27 04:33:45;;;;;;;12.77;9.82;;;;;;;15.40;100.00;101275.88;5051747;28;20041;-66
2022/06/27 04:36:12;;;;;;;13.48;10.75;;;;;;;15.48;100.00;101265.81;5050722;28;20025;-67
2022/06/27 04:38:38;;;;;;;13.77;10.82;;;;;;;15.50;100.00;101245.38;5050720;28;20167;-67
2022/06/27 04:41:05;;;;;;;14.77;10.60;;;;;;;15.64;100.00;101240.28;5052186;28;20106;-66
2022/06/27 04:43:33;;;;;;;10.77;9.68;;;;;;;16.13;100.00;101307.00;5049307;28;20149;-67
2022/06/27 04:45:59;;;;;;;12.77;9.77;;;;;;;16.17;100.00;101290.00;5014638;28;20121;-68
2022/06/27 04:48:26;;;;;;;10.05;9.07;;;;;;;16.29;100.00;101282.25;5031837;28;20065;-67
2022/06/27 04:50:52;;;;;;;10.18;9.18;;;;;;;16.28;100.00;101269.94;5031864;28;20041;-67
2022/06/27 04:53:19;;;;;;;10.48;9.38;;;;;;;16.37;100.00;101271.28;5040057;28;20453;-66
2022/06/27 04:55:44;;;;;;;13.00;9.20;;;;;;;16.48;100.00;101298.19;5051902;28;20036;-67
2022/06/27 04:58:10;;;;;;;10.00;9.02;;;;;;;16.39;100.00;101281.81;5050465;28;20099;-66
2022/06/27 05:00:36;;;;;;;11.20;9.82;;;;;;;16.19;100.00;101264.22;5051618;28;20399;-66
2022/06/27 05:03:03;;;;;;;10.95;9.80;;;;;;;16.13;100.00;101267.16;5035122;28;20034;-66
2022/06/27 05:05:28;;;;;;;13.20;9.38;;;;;;;16.31;100.00;101317.56;5030444;28;20107;-67
2022/06/27 05:07:55;;;;;;;12.63;10.13;;;;;;;15.92;100.00;101253.13;5032516;28;20037;-67
2022/06/27 05:10:20;;;;;;;13.15;9.95;;;;;;;16.12;100.00;101291.97;5047390;28;20037;-67
2022/06/27 05:12:46;;;;;;;11.90;10.20;;;;;;;16.05;100.00;101293.22;5033626;28;20045;-67
2022/06/27 05:15:11;;;;;;;13.43;10.00;;;;;;;16.11;100.00;101315.00;5018201;28;20025;-67
2022/06/27 05:17:36;;;;;;;14.15;10.60;;;;;;;15.07;100.00;101143.03;5035696;28;20044;-67
2022/06/27 05:20:02;;;;;;;11.50;10.10;;;;;;;16.17;100.00;101328.00;5035465;28;20037;-67
2022/06/27 05:22:28;;;;;;;11.27;9.15;;;;;;;16.25;100.00;101317.03;5035551;28;20052;-67
2022/06/27 05:24:53;;;;;;;13.70;10.68;;;;;;;16.44;100.00;101328.47;5035543;28;20037;-67
2022/06/27 05:27:19;;;;;;;12.10;10.20;;;;;;;16.57;100.00;101320.81;5036526;28;20120;-68
2022/06/27 05:29:45;;;;;;;13.20;9.88;;;;;;;16.62;100.00;101324.09;5035508;28;20369;-68
2022/06/27 05:32:10;;;;;;;11.02;9.63;;;;;;;16.64;100.00;101309.78;5034819;28;20040;-66
2022/06/27 05:34:36;;;;;;;11.00;9.73;;;;;;;16.53;100.00;101255.41;5033292;28;20068;-66
2022/06/27 05:37:04;;;;;;;11.75;10.15;;;;;;;16.62;100.00;101276.25;5033150;28;20457;-67
2022/06/27 05:39:30;;;;;;;12.75;9.48;;;;;;;16.95;100.00;101333.03;5033455;28;20117;-66
2022/06/27 05:41:55;;;;;;;12.65;10.25;;;;;;;17.08;100.00;101351.88;5034543;28;20137;-66
2022/06/27 05:44:21;;;;;;;10.27;9.18;;;;;;;16.76;100.00;101282.59;5035140;28;20077;-67
2022/06/27 05:46:46;;;;;;;12.20;9.20;;;;;;;17.10;100.00;101336.72;5035260;28;20030;-67
2022/06/27 05:49:11;;;;;;;10.05;9.15;;;;;;;17.23;100.00;101359.94;5034888;28;20034;-67
2022/06/27 05:51:38;;;;;;;12.13;9.77;;;;;;;16.34;100.00;101181.94;5035024;28;20037;-66
2022/06/27 05:54:04;;;;;;;10.95;9.85;;;;;;;17.41;100.00;101364.31;5035052;28;20038;-67
2022/06/27 05:56:30;;;;;;;12.57;9.48;;;;;;;17.15;100.00;101310.72;5035778;28;20520;-66
2022/06/27 05:58:55;;;;;;;11.40;10.30;;;;;;;17.22;100.00;101320.13;5035033;28;20117;-67
2022/06/27 06:01:25;;;;;;;11.40;10.20;;;;;;;17.63;100.00;101382.69;5051527;28;20040;-68
2022/06/27 06:03:51;;;;;;;15.23;11.07;;;;;;;17.40;100.00;101346.63;5053367;28;20163;-67
2022/06/27 06:06:16;;;;;;;10.77;9.77;;;;;;;17.60;100.00;101368.72;5053091;28;20135;-68
2022/06/27 06:08:43;;;;;;;11.02;9.80;;;;;;;17.92;100.00;101419.28;5054831;28;20033;-66
2022/06/27 06:11:09;;;;;;;12.68;10.25;;;;;;;17.79;100.00;101370.31;5054526;28;20122;-66
2022/06/27 06:13:34;;;;;;;11.32;10.10;;;;;;;17.70;100.00;101337.97;5023975;28;20021;-65
2022/06/27 06:16:00;;;;;;;14.10;10.85;;;;;;;17.94;100.00;101368.63;5033334;28;20503;-66
2022/06/27 06:18:27;;;;;;;11.55;10.18;;;;;;;18.19;100.00;101408.94;5034424;28;20033;-68
2022/06/27 06:20:52;;;;;;;11.70;9.07;;;;;;;18.27;100.00;101406.72;5034737;28;20064;-66
2022/06/27 06:23:17;;;;;;;11.40;9.48;;;;;;;18.28;100.00;101399.56;5032636;28;20053;-67
2022/06/27 06:25:43;;;;;;;9.75;8.35;;;;;;;18.03;100.00;101345.94;5046982;28;20063;-66
2022/06/27 06:28:09;;;;;;;11.27;8.45;;;;;;;18.45;100.00;101415.50;5053160;28;20041;-66
2022/06/27 06:30:35;;;;;;;11.43;9.07;;;;;;;18.23;100.00;101369.66;5049963;28;20488;-67
2022/06/27 06:33:04;;;;;;;9.75;8.70;;;;;;;18.29;100.00;101380.84;5041832;28;20614;-66
2022/06/27 06:35:30;;;;;;;10.43;8.27;;;;;;;18.46;100.00;101396.75;5054504;28;20464;-66
2022/06/27 06:37:57;;;;;;;11.57;8.48;;;;;;;18.41;100.00;101381.97;5052919;28;20071;-67
2022/06/27 06:40:22;;;;;;;8.80;7.63;;;;;;;18.95;100.00;101471.34;5053985;28;20443;-66
2022/06/27 06:42:48;;;;;;;9.27;7.60;;;;;;;18.70;100.00;101417.69;5053974;28;20052;-67
2022/06/27 06:45:14;;;;;;;8.60;7.35;;;;;;;19.01;100.00;101465.66;5053712;28;20080;-66
2022/06/27 06:47:46;;;;;;;9.10;7.82;;;;;;;18.90;100.00;101444.94;5052201;28;20369;-65
2022/06/27 06:50:16;;;;;;;8.93;7.93;;;;;;;19.04;100.00;101485.03;5052764;28;20543;-67
2022/06/27 06:52:42;;;;;;;9.15;7.95;;;;;;;18.90;100.00;101458.28;5054002;28;20033;-66
2022/06/27 06:55:09;;;;;;;10.77;8.50;;;;;;;18.49;100.00;101369.09;5053604;28;20041;-65
2022/06/27 06:57:35;;;;;;;14.07;8.95;;;;;;;18.77;100.00;101406.56;5053802;28;20041;-67
2022/06/27 07:00:00;;;;;;;9.18;7.72;;;;;;;18.52;100.00;101355.59;5053131;28;20040;-67
2022/06/27 07:02:26;;;;;;;11.05;7.85;;;;;;;18.50;100.00;101341.50;5036238;28;20447;-67
2022/06/27 07:04:52;;;;;;;9.43;7.50;;;;;;;18.74;100.00;101382.75;5031930;28;20041;-66
2022/06/27 07:07:19;;;;;;;10.93;8.95;;;;;;;18.83;100.00;101410.69;5033309;28;20042;-67
2022/06/27 07:09:44;;;;;;;10.38;8.25;;;;;;;18.77;100.00;101387.03;5033568;28;20083;-66
2022/06/27 07:12:10;;;;;;;9.85;8.05;;;;;;;18.55;100.00;101336.75;5033521;28;20037;-67
2022/06/27 07:14:36;;;;;;;11.07;7.93;;;;;;;18.43;100.00;101316.09;5032201;28;20033;-66
2022/06/27 07:17:01;;;;;;;8.57;7.68;;;;;;;18.85;100.00;101383.00;5033687;28;20087;-66
2022/06/27 07:19:27;;;;;;;8.68;7.60;;;;;;;18.59;100.00;101351.66;5033421;28;20033;-65
2022/06/27 07:21:53;;;;;;;11.27;8.02;;;;;;;18.89;100.00;101413.00;5033681;28;20069;-66
2022/06/27 07:24:18;;;;;;;9.13;7.68;;;;;;;18.63;100.00;101354.97;5029910;28;20080;-67
2022/06/27 07:26:44;;;;;;;13.02;8.10;;;;;;;18.92;100.00;101367.47;5031761;28;20230;-64
2022/06/27 07:29:10;;;;;;;8.85;7.20;;;;;;;18.97;100.00;101352.09;5031548;28;20069;-65
2022/06/27 07:31:36;;;;;;;12.48;7.50;;;;;;;19.08;100.00;101357.63;5031334;28;20068;-65
2022/06/27 07:34:02;;;;;;;8.27;7.35;;;;;;;19.17;100.00;101369.56;5030121;28;20033;-65
2022/06/27 07:36:28;;;;;;;8.55;7.35;;;;;;;19.41;100.00;101414.34;5030714;28;20052;-64
2022/06/27 07:38:54;;;;;;;9.52;8.32;;;;;;;19.34;100.00;101410.31;5028284;28;20048;-67
2022/06/27 07:41:21;;;;;;;9.00;8.05;;;;;;;19.04;100.00;101366.75;5030289;28;20473;-67
2022/06/27 07:43:47;;;;;;;9.18;8.18;;;;;;;19.29;100.00;101420.41;5031468;28;20040;-65
2022/06/27 07:46:15;;;;;;;11.90;8.00;;;;;;;19.07;100.00;101399.47;5031443;28;20040;-66
2022/06/27 07:48:41;;;;;;;10.10;7.50;;;;;;;19.36;100.00;101436.91;5030507;28;20477;-66
2022/06/27 07:51:06;;;;;;;10.52;8.07;;;;;;;19.40;100.00;101431.34;5031555;28;20124;-66
2022/06/27 07:53:32;;;;;;;15.73;9.15;;;;;;;19.56;100.00;101441.94;5031481;28;20037;-66
2022/06/27 07:55:59;;;;;;;12.07;8.32;;;;;;;19.26;100.00;101385.91;5031419;28;20045;-67
2022/06/27 07:58:35;;;;;;;9.52;7.68;;;;;;;19.64;100.00;101445.88;5031002;28;20044;-67
2022/06/27 08:01:21;;;;;;;11.48;7.57;;;;;;;19.56;100.00;101416.09;5031116;28;20044;-67
2022/06/27 08:03:49;;;;;;;8.82;7.63;;;;;;;19.77;100.00;101456.69;5031035;28;20045;-65
2022/06/27 08:06:16;;;;;;;8.70;7.05;;;;;;;19.93;100.00;101462.84;5029848;28;20033;-64
2022/06/27 08:08:54;;;;;;;8.18;7.28;;;;;;;20.10;100.00;101468.00;5031073;28;20596;-67
2022/06/27 08:11:23;;;;;;;8.73;6.50;;;;;;;20.00;100.00;101426.75;5031231;28;20064;-67
2022/06/27 08:13:50;;;;;;;10.15;6.70;;;;;;;20.27;100.00;101469.63;5030957;28;20029;-65
2022/06/27 08:16:18;;;;;;;10.00;6.43;;;;;;;20.01;100.00;101403.56;5029851;28;20032;-66
2022/06/27 08:18:46;;;;;;;8.80;6.68;;;;;;;20.01;100.00;101417.78;5013562;28;20026;-64
2022/06/27 08:21:14;;;;;;;8.70;6.43;;;;;;;20.21;100.00;101461.97;5029184;28;20040;-64
2022/06/27 08:23:39;;;;;;;7.43;5.80;;;;;;;20.10;100.00;101438.59;5030874;28;20045;-65
2022/06/27 08:26:07;;;;;;;6.68;5.90;;;;;;;19.90;100.00;101419.41;5029895;28;20099;-65
2022/06/27 08:28:34;;;;;;;10.00;5.68;;;;;;;20.25;100.00;101476.00;5029831;28;20469;-64
2022/06/27 08:31:01;;;;;;;9.23;5.10;;;;;;;20.51;100.00;101449.38;5031016;28;20449;-65
2022/06/27 08:33:29;;;;;;;7.72;5.28;;;;;;;20.99;100.00;101466.72;5031108;28;20507;-66
2022/06/27 08:35:56;;;;;;;7.85;5.53;;;;;;;21.41;100.00;101472.91;5029787;28;20037;-66
2022/06/27 08:38:22;;;;;;;8.63;4.97;;;;;;;21.63;100.00;101495.44;5030492;28;20030;-65
2022/06/27 08:40:50;;;;;;;5.57;4.43;;;;;;;21.64;100.00;101483.78;5029630;28;20487;-64
2022/06/27 08:43:16;;;;;;;7.88;5.15;;;;;;;21.76;100.00;101496.34;5029317;28;20033;-65
2022/06/27 08:45:43;;;;;;;7.05;4.50;;;;;;;22.11;100.00;101480.53;5029484;28;20104;-66
2022/06/27 08:48:09;;;;;;;7.80;5.45;;;;;;;22.50;100.00;101522.44;5028716;28;20053;-65
2022/06/27 08:50:35;;;;;;;8.27;5.43;;;;;;;22.41;100.00;101510.53;5029761;28;20064;-65
2022/06/27 08:53:02;;;;;;;11.65;5.32;;;;;;;22.44;100.00;101528.25;5029368;28;20041;-65
2022/06/27 08:55:28;;;;;;;7.55;5.15;;;;;;;22.42;100.00;101531.00;5030499;28;20069;-67
2022/06/27 08:57:54;;;;;;;6.53;4.88;;;;;;;22.05;100.00;101474.72;5030301;28;20064;-66
2022/06/27 09:00:22;;;;;;;5.63;4.28;;;;;;;22.25;100.00;101525.13;5030429;28;20049;-66
2022/06/27 09:02:47;;;;;;;10.90;5.40;;;;;;;21.77;100.00;101463.19;5029996;28;20069;-64
2022/06/27 09:05:16;;;;;;;8.38;6.53;;;;;;;21.95;100.00;101529.97;5030092;28;20072;-65
2022/06/27 09:07:47;;;;;;;7.28;5.40;;;;;;;21.48;100.00;101471.53;5030642;28;20116;-67
2022/06/27 09:10:31;;;;;;;11.32;5.72;;;;;;;21.68;100.00;101532.66;5030230;28;20092;-65
2022/06/27 09:12:58;;;;;;;9.63;5.47;;;;;;;21.57;100.00;101535.22;5028977;28;20558;-65
2022/06/27 09:15:46;;;;;;;6.45;4.65;;;;;;;21.41;100.00;101532.69;5030222;28;20080;-67
2022/06/27 09:18:14;;;;;;;7.20;4.88;;;;;;;21.28;100.00;101529.09;5026620;28;20119;-67
2022/06/27 09:20:53;;;;;;;8.60;4.90;;;;;;;21.24;100.00;101511.53;5028877;28;20036;-66
2022/06/27 09:23:31;;;;;;;5.00;4.13;;;;;;;20.91;100.00;101479.75;5030085;28;20431;-64
2022/06/27 09:26:21;;;;;;;5.70;3.90;;;;;;;20.39;100.00;101374.41;5029789;28;20477;-66
2022/06/27 09:29:04;;;;;;;6.47;4.70;;;;;;;21.13;100.00;101490.78;5024282;28;20042;-67
2022/06/27 09:31:32;;;;;;;6.38;4.57;;;;;;;21.06;100.00;101459.16;5028381;28;20053;-65
2022/06/27 09:34:20;;;;;;;7.80;4.78;;;;;;;21.51;100.00;101508.81;5029719;28;20479;-66
2022/06/27 09:36:50;;;;;;;9.25;5.30;;;;;;;21.75;100.00;101523.22;5029634;28;20022;-64
2022/06/27 09:39:35;;;;;;;7.47;3.95;;;;;;;21.78;100.00;101494.41;5030131;28;20580;-65
2022/06/27 09:42:01;;;;;;;8.30;4.13;;;;;;;22.14;100.00;101538.44;5029957;28;20049;-65
2022/06/27 09:44:32;;;;;;;5.10;3.40;;;;;;;21.90;100.00;101527.56;5027493;28;20053;-64
2022/06/27 09:47:16;;;;;;;5.82;2.85;;;;;;;21.77;100.00;101537.41;5028290;28;20407;-64
2022/06/27 09:49:44;;;;;;;5.28;3.03;;;;;;;21.79;100.00;101549.72;5030025;28;20037;-65
2022/06/27 09:52:12;;;;;;;5.70;3.05;;;;;;;21.70;100.00;101534.25;5028699;28;20491;-65
2022/06/27 09:54:40;;;;;;;8.65;3.67;;;;;;;21.37;100.00;101466.88;5028790;28;20064;-65
2022/06/27 09:57:07;;;;;;;7.07;3.30;;;;;;;21.94;100.00;101538.94;5030053;28;20532;-65
2022/06/27 09:59:33;;;;;;;9.10;3.80;;;;;;;22.08;100.00;101534.34;5030963;28;20042;-65
2022/06/27 10:02:00;;;;;;;8.20;4.43;;;;;;;22.27;100.00;101550.03;5031711;28;20040;-66
2022/06/27 10:04:26;;;;;;;7.18;3.95;;;;;;;22.18;100.00;101480.94;5031888;28;20041;-66
2022/06/27 10:06:57;;;;;;;8.52;3.58;;;;;;;22.55;100.00;101536.38;5033052;28;20388;-66
2022/06/27 10:09:25;;;;;;;10.52;3.33;;;;;;;22.56;100.00;101545.28;5031335;28;20456;-65
2022/06/27 10:12:18;;;;;;;5.35;2.88;;;;;;;22.54;100.00;101536.47;5032095;28;20038;-65
2022/06/27 10:14:44;;;;;;;5.90;3.65;;;;;;;22.02;100.00;101470.44;5033034;28;20037;-64
2022/06/27 10:17:13;;;;;;;6.05;3.55;;;;;;;22.18;100.00;101513.97;5031895;28;20362;-64
2022/06/27 10:19:59;;;;;;;6.82;3.42;;;;;;;22.09;100.00;101530.72;5015173;28;20032;-64
2022/06/27 10:22:25;;;;;;;5.75;3.15;;;;;;;21.98;100.00;101538.63;5033187;28;20529;-65
2022/06/27 10:24:50;;;;;;;6.30;3.25;;;;;;;21.84;100.00;101536.00;5031296;28;20144;-65
2022/06/27 10:27:29;;;;;;;4.78;3.05;;;;;;;21.71;100.00;101530.63;5032776;28;20144;-64
2022/06/27 10:29:54;;;;;;;4.32;2.85;;;;;;;21.62;100.00;101525.03;5032768;28;20037;-65
2022/06/27 10:32:49;;;;;;;7.22;3.60;;;;;;;21.42;100.00;101526.38;5033108;28;20037;-64
2022/06/27 10:35:15;;;;;;;8.65;3.85;;;;;;;21.06;100.00;101473.41;5029561;28;20504;-64
2022/06/27 10:37:41;;;;;;;6.75;3.47;;;;;;;21.26;100.00;101523.84;5031299;28;20030;-65
2022/06/27 10:40:19;;;;;;;9.07;4.53;;;;;;;21.16;100.00;101519.22;5015202;28;20037;-65
2022/06/27 10:42:44;;;;;;;6.47;3.80;;;;;;;21.14;100.00;101519.28;5032543;28;20041;-66
2022/06/27 10:45:19;;;;;;;8.10;3.83;;;;;;;21.10;100.00;101516.94;5032420;28;20040;-65
2022/06/27 10:47:44;;;;;;;8.32;3.85;;;;;;;21.09;100.00;101516.06;5030943;28;20655;-65
2022/06/27 10:50:11;;;;;;;6.45;3.55;;;;;;;21.08;100.00;101497.41;5014760;28;20044;-65
2022/06/27 10:52:36;;;;;;;6.45;3.25;;;;;;;21.14;100.00;101516.63;5030857;28;20068;-65
2022/06/27 10:55:02;;;;;;;6.47;3.45;;;;;;;21.23;100.00;101531.22;5032180;28;20461;-64
2022/06/27 10:57:37;;;;;;;5.50;4.10;;;;;;;21.39;100.00;101523.03;5030347;28;20049;-64
2022/06/27 11:00:04;;;;;;;7.03;3.30;;;;;;;21.45;100.00;101502.06;5012756;28;20448;-66
2022/06/27 11:02:31;;;;;;;5.47;3.30;;;;;;;21.11;100.00;101419.56;5030478;28;20033;-65
2022/06/27 11:04:57;;;;;;;3.80;2.63;;;;;;;21.50;100.00;101469.59;5031273;28;20034;-65
2022/06/27 11:07:22;;;;;;;6.65;2.97;;;;;;;21.66;100.00;101494.38;5014690;28;20113;-66
2022/06/27 11:09:48;;;;;;;6.13;2.75;;;;;;;21.62;100.00;101490.19;5031902;28;20034;-64
2022/06/27 11:12:16;;;;;;;5.28;2.90;;;;;;;22.00;100.00;101533.16;5030801;28;20029;-60
2022/06/27 11:15:00;;;;;;;5.93;3.05;;;;;;;22.05;100.00;101522.97;5031351;28;20068;-65